Time;durP1;ratioP1;P1;durP2;ratioP2;P2;SDS_P1;SDS_P2;PMS_P1;PMS_P2;Temp;Humidity;BMP_temperature;BMP_pressure;BME280_temperature;BME280_humidity;BME280_pressure;Samples;Min_cycle;Max_cycle;Signal;HPM_P1;HPM_P2
2024/02/19 00:01:52;;;;;;;;;;;;;;;;;;6322873;28;19957;-81
2024/02/19 00:04:52;;;;;;;;;;;;;;;;;;6323836;28;19916;-80
2024/02/19 00:07:52;;;;;;;;;;;;;;;;;;6324830;28;19904;-80
2024/02/19 00:10:53;;;;;;;;;;;;;;;;;;6318340;28;19958;-79
2024/02/19 00:13:54;;;;;;;;;;;;;;;;;;6324087;28;19939;-78
2024/02/19 00:16:54;;;;;;;;;;;;;;;;;;6322034;28;19930;-78
2024/02/19 00:19:54;;;;;;;;;;;;;;;;;;6315602;28;20357;-78
2024/02/19 00:22:55;;;;;;;;;;;;;;;;;;6310372;28;19916;-78
2024/02/19 00:25:55;;;;;;;;;;;;;;;;;;6307920;28;19912;-78
2024/02/19 00:28:55;;;;;;;;;;;;;;;;;;6297299;28;19908;-78
2024/02/19 00:31:55;;;;;;;;;;;;;;;;;;6301464;28;19912;-78
2024/02/19 00:34:55;;;;;;;;;;;;;;;;;;6323352;28;19933;-78
2024/02/19 00:37:56;;;;;;;;;;;;;;;;;;6322716;28;19908;-78
2024/02/19 00:40:56;;;;;;;;;;;;;;;;;;6322820;28;19912;-78
2024/02/19 00:43:56;;;;;;;;;;;;;;;;;;6321880;28;19950;-79
2024/02/19 00:46:56;;;;;;;;;;;;;;;;;;6324086;28;19933;-78
2024/02/19 00:49:56;;;;;;;;;;;;;;;;;;6318402;28;19912;-78
2024/02/19 00:52:57;;;;;;;;;;;;;;;;;;6314232;28;19912;-78
2024/02/19 00:55:57;;;;;;;;;;;;;;;;;;6324276;28;19908;-79
2024/02/19 00:58:57;;;;;;;;;;;;;;;;;;6306176;28;19955;-78
2024/02/19 01:01:57;;;;;;;;;;;;;;;;;;6322272;28;19958;-78
2024/02/19 01:04:58;;;;;;;;;;;;;;;;;;6323531;28;19916;-78
2024/02/19 01:07:59;;;;;;;;;;;;;;;;;;6307548;28;19911;-78
2024/02/19 01:10:59;;;;;;;;;;;;;;;;;;6309700;28;19908;-78
2024/02/19 01:13:59;;;;;;;;;;;;;;;;;;6311892;28;19920;-78
2024/02/19 01:16:59;;;;;;;;;;;;;;;;;;6324809;28;19915;-78
2024/02/19 01:19:59;;;;;;;;;;;;;;;;;;6306382;28;20003;-79
2024/02/19 01:22:59;;;;;;;;;;;;;;;;;;6313008;28;20045;-80
2024/02/19 01:25:59;;;;;;;;;;;;;;;;;;6324487;28;19930;-81
2024/02/19 01:29:00;;;;;;;;;;;;;;;;;;6318985;28;19919;-80
2024/02/19 01:32:00;;;;;;;;;;;;;;;;;;6304422;28;19935;-80
2024/02/19 01:35:00;;;;;;;;;;;;;;;;;;6298870;28;20379;-80
2024/02/19 01:38:00;;;;;;;;;;;;;;;;;;6301288;28;20335;-79
2024/02/19 01:41:00;;;;;;;;;;;;;;;;;;6324812;28;20315;-80
2024/02/19 01:44:02;;;;;;;;;;;;;;;;;;6314343;28;19916;-81
2024/02/19 01:47:02;;;;;;;;;;;;;;;;;;6297687;28;19939;-80
2024/02/19 01:50:02;;;;;;;;;;;;;;;;;;6304435;28;20334;-80
2024/02/19 01:53:02;;;;;;;;;;;;;;;;;;6309616;28;20390;-80
2024/02/19 01:56:02;;;;;;;;;;;;;;;;;;6315343;28;19955;-80
2024/02/19 01:59:02;;;;;;;;;;;;;;;;;;6326780;28;19907;-80
2024/02/19 02:02:02;;;;;;;;;;;;;;;;;;6329589;28;19912;-80
2024/02/19 02:05:03;;;;;;;;;;;;;;;;;;6302847;28;20327;-79
2024/02/19 02:08:05;;;;;;;;;;;;;;;;;;6305373;28;19908;-80
2024/02/19 02:11:05;;;;;;;;;;;;;;;;;;6325741;28;19908;-80
2024/02/19 02:14:05;;;;;;;;;;;;;;;;;;6343989;28;19965;-80
2024/02/19 02:17:08;;;;;;;;;;;;;;;;;;6324165;28;19908;-80
2024/02/19 02:20:08;;;;;;;;;;;;;;;;;;6301537;28;20331;-79
2024/02/19 02:23:08;;;;;;;;;;;;;;;;;;6303016;28;19904;-80
2024/02/19 02:26:08;;;;;;;;;;;;;;;;;;6312788;28;19916;-80
2024/02/19 02:29:08;;;;;;;;;;;;;;;;;;6321338;28;19926;-80
2024/02/19 02:32:08;;;;;;;;;;;;;;;;;;6327419;28;19911;-80
2024/02/19 02:35:08;;;;;;;;;;;;;;;;;;6325961;28;19908;-80
2024/02/19 02:38:09;;;;;;;;;;;;;;;;;;6314534;28;19909;-80
2024/02/19 02:41:09;;;;;;;;;;;;;;;;;;6302526;28;19913;-80
2024/02/19 02:44:09;;;;;;;;;;;;;;;;;;6302454;28;20003;-80
2024/02/19 02:47:09;;;;;;;;;;;;;;;;;;6312257;28;20046;-80
2024/02/19 02:50:09;;;;;;;;;;;;;;;;;;6300477;28;20057;-80
2024/02/19 02:53:09;;;;;;;;;;;;;;;;;;6317193;28;19915;-80
2024/02/19 02:56:09;;;;;;;;;;;;;;;;;;6322078;28;20359;-80
2024/02/19 02:59:10;;;;;;;;;;;;;;;;;;6314781;28;19962;-80
2024/02/19 03:02:10;;;;;;;;;;;;;;;;;;6303888;28;19990;-80
2024/02/19 03:05:10;;;;;;;;;;;;;;;;;;6316572;28;20020;-80
2024/02/19 03:08:10;;;;;;;;;;;;;;;;;;6310227;28;20356;-80
2024/02/19 03:11:10;;;;;;;;;;;;;;;;;;6310182;28;19908;-80
2024/02/19 03:14:13;;;;;;;;;;;;;;;;;;6338503;28;19919;-80
2024/02/19 03:17:13;;;;;;;;;;;;;;;;;;6351184;28;20037;-80
2024/02/19 03:20:13;;;;;;;;;;;;;;;;;;6330319;28;20087;-80
2024/02/19 03:23:14;;;;;;;;;;;;;;;;;;6327370;28;19970;-81
2024/02/19 03:26:15;;;;;;;;;;;;;;;;;;6321710;28;20014;-80
2024/02/19 03:29:15;;;;;;;;;;;;;;;;;;6320538;28;19933;-80
2024/02/19 03:32:15;;;;;;;;;;;;;;;;;;6325633;28;19950;-80
2024/02/19 03:35:15;;;;;;;;;;;;;;;;;;6326490;28;19908;-79
2024/02/19 03:38:15;;;;;;;;;;;;;;;;;;6321608;28;19908;-80
2024/02/19 03:41:16;;;;;;;;;;;;;;;;;;6303287;28;20254;-80
2024/02/19 03:44:16;;;;;;;;;;;;;;;;;;6317828;28;20276;-81
2024/02/19 03:47:16;;;;;;;;;;;;;;;;;;6321111;28;19912;-80
2024/02/19 03:50:16;;;;;;;;;;;;;;;;;;6307837;28;19917;-80
2024/02/19 03:53:16;;;;;;;;;;;;;;;;;;6324121;28;19908;-80
2024/02/19 03:56:17;;;;;;;;;;;;;;;;;;6310327;28;20356;-80
2024/02/19 03:59:17;;;;;;;;;;;;;;;;;;6298392;28;19908;-80
2024/02/19 04:02:18;;;;;;;;;;;;;;;;;;6321137;28;19911;-81
2024/02/19 04:05:18;;;;;;;;;;;;;;;;;;6323776;28;20358;-80
2024/02/19 04:08:18;;;;;;;;;;;;;;;;;;6307395;28;19931;-81
2024/02/19 04:11:18;;;;;;;;;;;;;;;;;;6300645;28;19915;-80
2024/02/19 04:14:18;;;;;;;;;;;;;;;;;;6326141;28;19923;-81
2024/02/19 04:17:18;;;;;;;;;;;;;;;;;;6312998;28;19908;-80
2024/02/19 04:20:18;;;;;;;;;;;;;;;;;;6316275;28;19908;-80
2024/02/19 04:23:19;;;;;;;;;;;;;;;;;;6323170;28;20425;-81
2024/02/19 04:26:19;;;;;;;;;;;;;;;;;;6324378;28;19912;-81
2024/02/19 04:29:19;;;;;;;;;;;;;;;;;;6321893;28;20281;-81
2024/02/19 04:32:19;;;;;;;;;;;;;;;;;;6323340;28;19904;-80
2024/02/19 04:35:19;;;;;;;;;;;;;;;;;;6305154;28;20028;-80
2024/02/19 04:38:20;;;;;;;;;;;;;;;;;;6308098;28;19932;-80
2024/02/19 04:41:20;;;;;;;;;;;;;;;;;;6299024;28;19994;-81
2024/02/19 04:44:20;;;;;;;;;;;;;;;;;;6309344;28;19939;-81
2024/02/19 04:47:20;;;;;;;;;;;;;;;;;;6323412;28;19980;-80
2024/02/19 04:50:20;;;;;;;;;;;;;;;;;;6307671;28;20003;-80
2024/02/19 04:53:20;;;;;;;;;;;;;;;;;;6306126;28;19922;-80
2024/02/19 04:56:20;;;;;;;;;;;;;;;;;;6323768;28;19915;-81
2024/02/19 04:59:21;;;;;;;;;;;;;;;;;;6319721;28;19908;-81
2024/02/19 05:02:21;;;;;;;;;;;;;;;;;;6323230;28;19908;-79
2024/02/19 05:05:21;;;;;;;;;;;;;;;;;;6321232;28;19920;-79
2024/02/19 05:08:22;;;;;;;;;;;;;;;;;;6316863;28;19916;-79
2024/02/19 05:11:23;;;;;;;;;;;;;;;;;;6311805;28;19940;-79
2024/02/19 05:14:23;;;;;;;;;;;;;;;;;;6320822;28;19916;-79
2024/02/19 05:17:23;;;;;;;;;;;;;;;;;;6310697;28;19912;-80
2024/02/19 05:20:26;;;;;;;;;;;;;;;;;;6296164;28;19958;-80
2024/02/19 05:23:26;;;;;;;;;;;;;;;;;;6298228;28;20546;-79
2024/02/19 05:26:26;;;;;;;;;;;;;;;;;;6314659;28;20162;-79
2024/02/19 05:29:26;;;;;;;;;;;;;;;;;;6315070;28;20403;-79
2024/02/19 05:32:26;;;;;;;;;;;;;;;;;;6298020;28;20368;-78
2024/02/19 05:35:27;;;;;;;;;;;;;;;;;;6309260;28;19912;-78
2024/02/19 05:38:27;;;;;;;;;;;;;;;;;;6303567;28;19909;-78
2024/02/19 05:41:27;;;;;;;;;;;;;;;;;;6303541;28;20379;-78
2024/02/19 05:44:27;;;;;;;;;;;;;;;;;;6327621;28;19927;-78
2024/02/19 05:47:27;;;;;;;;;;;;;;;;;;6314385;28;19912;-78
2024/02/19 05:50:30;;;;;;;;;;;;;;;;;;6301657;28;20319;-78
2024/02/19 05:53:30;;;;;;;;;;;;;;;;;;6315475;28;19965;-77
2024/02/19 05:56:30;;;;;;;;;;;;;;;;;;6324371;28;19922;-78
2024/02/19 05:59:30;;;;;;;;;;;;;;;;;;6323808;28;20322;-78
2024/02/19 06:02:30;;;;;;;;;;;;;;;;;;6326373;28;20257;-77
2024/02/19 06:05:30;;;;;;;;;;;;;;;;;;6325682;28;20293;-77
2024/02/19 06:08:31;;;;;;;;;;;;;;;;;;6324702;28;20276;-78
2024/02/19 06:11:31;;;;;;;;;;;;;;;;;;6324140;28;20356;-78
2024/02/19 06:14:31;;;;;;;;;;;;;;;;;;6319940;28;20292;-78
2024/02/19 06:17:31;;;;;;;;;;;;;;;;;;6320225;28;19914;-77
2024/02/19 06:20:31;;;;;;;;;;;;;;;;;;6321123;28;20260;-78
2024/02/19 06:23:32;;;;;;;;;;;;;;;;;;6326587;28;19973;-77
2024/02/19 06:26:32;;;;;;;;;;;;;;;;;;6325927;28;20325;-78
2024/02/19 06:29:33;;;;;;;;;;;;;;;;;;6306874;28;19994;-77
2024/02/19 06:32:33;;;;;;;;;;;;;;;;;;6346654;28;20391;-77
2024/02/19 06:35:33;;;;;;;;;;;;;;;;;;6325386;28;19908;-77
2024/02/19 06:38:33;;;;;;;;;;;;;;;;;;6313956;28;19908;-78
2024/02/19 06:41:34;;;;;;;;;;;;;;;;;;6324834;28;20352;-77
2024/02/19 06:44:34;;;;;;;;;;;;;;;;;;6307170;28;20403;-77
2024/02/19 06:47:34;;;;;;;;;;;;;;;;;;6322533;28;20402;-77
2024/02/19 06:50:34;;;;;;;;;;;;;;;;;;6321995;28;19927;-77
2024/02/19 06:53:34;;;;;;;;;;;;;;;;;;6317609;28;19908;-77
2024/02/19 06:56:34;;;;;;;;;;;;;;;;;;6322737;28;19908;-77
2024/02/19 06:59:34;;;;;;;;;;;;;;;;;;6316261;28;19907;-75
2024/02/19 07:02:35;;;;;;;;;;;;;;;;;;6302549;28;20000;-77
2024/02/19 07:05:35;;;;;;;;;;;;;;;;;;6313864;28;19916;-77
2024/02/19 07:08:35;;;;;;;;;;;;;;;;;;6315344;28;19991;-77
2024/02/19 07:11:35;;;;;;;;;;;;;;;;;;6314665;28;20311;-75
2024/02/19 07:14:35;;;;;;;;;;;;;;;;;;6319940;28;19916;-77
2024/02/19 07:17:36;;;;;;;;;;;;;;;;;;6300010;28;20443;-77
2024/02/19 07:20:36;;;;;;;;;;;;;;;;;;6300294;28;19916;-77
2024/02/19 07:23:36;;;;;;;;;;;;;;;;;;6302132;28;19912;-77
2024/02/19 07:26:36;;;;;;;;;;;;;;;;;;6309710;28;19913;-76
2024/02/19 07:29:36;;;;;;;;;;;;;;;;;;6312935;28;19907;-77
2024/02/19 07:32:37;;;;;;;;;;;;;;;;;;6318770;28;19911;-76
2024/02/19 07:35:37;;;;;;;;;;;;;;;;;;6318410;28;20424;-76
2024/02/19 07:38:37;;;;;;;;;;;;;;;;;;6302062;28;19991;-76
2024/02/19 07:41:37;;;;;;;;;;;;;;;;;;6315985;28;19915;-76
2024/02/19 07:44:37;;;;;;;;;;;;;;;;;;6306282;28;19920;-75
2024/02/19 07:47:37;;;;;;;;;;;;;;;;;;6308022;28;19918;-78
2024/02/19 07:50:37;;;;;;;;;;;;;;;;;;6308713;28;19920;-76
2024/02/19 07:53:37;;;;;;;;;;;;;;;;;;6313930;28;20257;-76
2024/02/19 07:56:38;;;;;;;;;;;;;;;;;;6320744;28;20284;-76
2024/02/19 07:59:38;;;;;;;;;;;;;;;;;;6313002;28;20371;-77
2024/02/19 08:02:38;;;;;;;;;;;;;;;;;;6323732;28;19904;-77
2024/02/19 08:05:38;;;;;;;;;;;;;;;;;;6320896;28;19916;-77
2024/02/19 08:08:39;;;;;;;;;;;;;;;;;;6321693;28;19916;-77
2024/02/19 08:11:39;;;;;;;;;;;;;;;;;;6312724;28;20424;-76
2024/02/19 08:14:39;;;;;;;;;;;;;;;;;;6334884;28;19931;-77
2024/02/19 08:17:39;;;;;;;;;;;;;;;;;;6311102;28;19916;-78
2024/02/19 08:20:39;;;;;;;;;;;;;;;;;;6314386;28;20319;-79
2024/02/19 08:23:39;;;;;;;;;;;;;;;;;;6318336;28;19908;-80
2024/02/19 08:26:40;;;;;;;;;;;;;;;;;;6317720;28;19958;-80
2024/02/19 08:29:40;;;;;;;;;;;;;;;;;;6303210;28;19966;-81
2024/02/19 08:32:40;;;;;;;;;;;;;;;;;;6314305;28;19912;-81
2024/02/19 08:35:41;;;;;;;;;;;;;;;;;;6319867;28;19916;-80
2024/02/19 08:38:44;;;;;;;;;;;;;;;;;;6320841;28;20347;-80
2024/02/19 08:41:44;;;;;;;;;;;;;;;;;;6320488;28;19913;-81
2024/02/19 08:44:44;;;;;;;;;;;;;;;;;;6311337;28;19912;-81
2024/02/19 08:47:45;;;;;;;;;;;;;;;;;;6305852;28;19912;-82
2024/02/19 08:50:47;;;;;;;;;;;;;;;;;;6302705;28;19908;-82
2024/02/19 08:53:47;;;;;;;;;;;;;;;;;;6295457;28;19961;-81
2024/02/19 08:56:47;;;;;;;;;;;;;;;;;;6309501;28;20348;-80
2024/02/19 08:59:47;;;;;;;;;;;;;;;;;;6293954;28;19923;-80
2024/02/19 09:02:47;;;;;;;;;;;;;;;;;;6314340;28;19919;-80
2024/02/19 09:05:47;;;;;;;;;;;;;;;;;;5962304;28;10000555;-79
2024/02/19 09:08:48;;;;;;;;;;;;;;;;;;6306538;28;19957;-81
2024/02/19 09:11:48;;;;;;;;;;;;;;;;;;6314190;28;19915;-81
2024/02/19 09:14:48;;;;;;;;;;;;;;;;;;6311088;28;20286;-80
2024/02/19 09:17:48;;;;;;;;;;;;;;;;;;6316718;28;19908;-80
2024/02/19 09:20:48;;;;;;;;;;;;;;;;;;6323444;28;19904;-80
2024/02/19 09:23:48;;;;;;;;;;;;;;;;;;6316414;28;19953;-81
2024/02/19 09:26:49;;;;;;;;;;;;;;;;;;6322570;28;19904;-80
2024/02/19 09:29:49;;;;;;;;;;;;;;;;;;6317213;28;19969;-80
2024/02/19 09:32:49;;;;;;;;;;;;;;;;;;6318390;28;19908;-80
2024/02/19 09:35:49;;;;;;;;;;;;;;;;;;6321342;28;19933;-80
2024/02/19 09:38:49;;;;;;;;;;;;;;;;;;6317381;28;19915;-81
2024/02/19 09:41:49;;;;;;;;;;;;;;;;;;6298829;28;19916;-81
2024/02/19 09:44:50;;;;;;;;;;;;;;;;;;6306702;28;19916;-81
2024/02/19 09:47:50;;;;;;;;;;;;;;;;;;6299347;28;19908;-80
2024/02/19 09:50:50;;;;;;;;;;;;;;;;;;6318488;28;19916;-80
2024/02/19 09:53:53;;;;;;;;;;;;;;;;;;6306524;28;19922;-80
2024/02/19 09:56:54;;;;;;;;;;;;;;;;;;6310397;28;19915;-75
2024/02/19 09:59:57;;;;;;;;;;;;;;;;;;6295338;28;19912;-78
2024/02/19 10:02:57;;;;;;;;;;;;;;;;;;6306195;28;19912;-78
2024/02/19 10:05:57;;;;;;;;;;;;;;;;;;6300201;28;20441;-78
2024/02/19 10:08:57;;;;;;;;;;;;;;;;;;6309537;28;19951;-78
2024/02/19 10:11:57;;;;;;;;;;;;;;;;;;6322447;28;19931;-78
2024/02/19 10:14:57;;;;;;;;;;;;;;;;;;6325544;28;20292;-77
2024/02/19 10:17:58;;;;;;;;;;;;;;;;;;6296836;28;19954;-77
2024/02/19 10:20:58;;;;;;;;;;;;;;;;;;6297793;28;19962;-77
2024/02/19 10:23:58;;;;;;;;;;;;;;;;;;6304293;28;20386;-78
2024/02/19 10:26:58;;;;;;;;;;;;;;;;;;6322167;28;19955;-78
2024/02/19 10:29:59;;;;;;;;;;;;;;;;;;6327727;28;19910;-78
2024/02/19 10:32:59;;;;;;;;;;;;;;;;;;6314328;28;19915;-78
2024/02/19 10:36:00;;;;;;;;;;;;;;;;;;6317596;28;19946;-78
2024/02/19 10:39:01;;;;;;;;;;;;;;;;;;6311096;28;19918;-78
2024/02/19 10:42:01;;;;;;;;;;;;;;;;;;6321960;28;20235;-78
2024/02/19 10:45:01;;;;;;;;;;;;;;;;;;6312285;28;19916;-78
2024/02/19 10:48:01;;;;;;;;;;;;;;;;;;6310455;28;19919;-76
2024/02/19 10:51:01;;;;;;;;;;;;;;;;;;6321631;28;19912;-77
2024/02/19 10:54:02;;;;;;;;;;;;;;;;;;6325439;28;19912;-76
2024/02/19 10:57:02;;;;;;;;;;;;;;;;;;6317926;28;19913;-75
2024/02/19 11:00:03;;;;;;;;;;;;;;;;;;6307922;28;20440;-76
2024/02/19 11:03:06;;;;;;;;;;;;;;;;;;6309566;28;19915;-75
2024/02/19 11:06:06;;;;;;;;;;;;;;;;;;6307610;28;19961;-75
2024/02/19 11:09:07;;;;;;;;;;;;;;;;;;6324479;28;19907;-75
2024/02/19 11:12:08;;;;;;;;;;;;;;;;;;6324125;28;19916;-75
2024/02/19 11:15:08;;;;;;;;;;;;;;;;;;6348267;28;19916;-75
2024/02/19 11:18:08;;;;;;;;;;;;;;;;;;6336755;28;19913;-75
2024/02/19 11:21:09;;;;;;;;;;;;;;;;;;6318783;28;19916;-75
2024/02/19 11:24:09;;;;;;;;;;;;;;;;;;6303208;28;19916;-77
2024/02/19 11:27:10;;;;;;;;;;;;;;;;;;6312982;28;19946;-78
2024/02/19 11:30:10;;;;;;;;;;;;;;;;;;6324202;28;20341;-77
2024/02/19 11:33:11;;;;;;;;;;;;;;;;;;6311741;28;19966;-77
2024/02/19 11:36:11;;;;;;;;;;;;;;;;;;6318123;28;19908;-78
2024/02/19 11:39:12;;;;;;;;;;;;;;;;;;6316575;28;20285;-78
2024/02/19 11:42:14;;;;;;;;;;;;;;;;;;6306454;28;19904;-77
2024/02/19 11:45:15;;;;;;;;;;;;;;;;;;6323773;28;19912;-80
2024/02/19 11:48:17;;;;;;;;;;;;;;;;;;6312156;28;19926;-77
2024/02/19 11:51:17;;;;;;;;;;;;;;;;;;6311492;28;19908;-79
2024/02/19 11:54:17;;;;;;;;;;;;;;;;;;6305317;28;19912;-78
2024/02/19 11:57:17;;;;;;;;;;;;;;;;;;6323146;28;20368;-77
2024/02/19 12:00:17;;;;;;;;;;;;;;;;;;6324065;28;20008;-80
2024/02/19 12:03:18;;;;;;;;;;;;;;;;;;6309206;28;20285;-79
2024/02/19 12:06:18;;;;;;;;;;;;;;;;;;6297874;28;20368;-80
2024/02/19 12:09:18;;;;;;;;;;;;;;;;;;6306879;28;20364;-80
2024/02/19 12:12:18;;;;;;;;;;;;;;;;;;6313351;28;19912;-80
2024/02/19 12:15:21;;;;;;;;;;;;;;;;;;6308609;28;20288;-80
2024/02/19 12:18:21;;;;;;;;;;;;;;;;;;6317102;28;20384;-80
2024/02/19 12:21:22;;;;;;;;;;;;;;;;;;6320838;28;19908;-80
2024/02/19 12:24:23;;;;;;;;;;;;;;;;;;6323680;28;20299;-80
2024/02/19 12:27:24;;;;;;;;;;;;;;;;;;6309524;28;19951;-80
2024/02/19 12:30:24;;;;;;;;;;;;;;;;;;6299113;28;19908;-80
2024/02/19 12:33:25;;;;;;;;;;;;;;;;;;6315264;28;19915;-80
2024/02/19 12:36:25;;;;;;;;;;;;;;;;;;6319570;28;19911;-80
2024/02/19 12:39:26;;;;;;;;;;;;;;;;;;6298032;28;20365;-80
2024/02/19 12:42:26;;;;;;;;;;;;;;;;;;6298353;28;20500;-79
2024/02/19 12:45:26;;;;;;;;;;;;;;;;;;6295362;28;19922;-81
2024/02/19 12:48:26;;;;;;;;;;;;;;;;;;6313858;28;19916;-79
2024/02/19 12:51:26;;;;;;;;;;;;;;;;;;6302261;28;19954;-79
2024/02/19 12:54:27;;;;;;;;;;;;;;;;;;6319982;28;19908;-79
2024/02/19 12:57:27;;;;;;;;;;;;;;;;;;6301424;28;19912;-80
2024/02/19 13:00:27;;;;;;;;;;;;;;;;;;6307694;28;19961;-81
2024/02/19 13:03:28;;;;;;;;;;;;;;;;;;6312560;28;19923;-80
2024/02/19 13:06:28;;;;;;;;;;;;;;;;;;6312826;28;20292;-80
2024/02/19 13:09:28;;;;;;;;;;;;;;;;;;6309121;28;19940;-81
2024/02/19 13:12:28;;;;;;;;;;;;;;;;;;6300224;28;20014;-82
2024/02/19 13:15:28;;;;;;;;;;;;;;;;;;6322173;28;19912;-81
2024/02/19 13:18:30;;;;;;;;;;;;;;;;;;6322607;28;19927;-81
2024/02/19 13:21:30;;;;;;;;;;;;;;;;;;6298702;28;19909;-81
2024/02/19 13:24:30;;;;;;;;;;;;;;;;;;6305480;28;19915;-81
2024/02/19 13:27:30;;;;;;;;;;;;;;;;;;6314849;28;19961;-80
2024/02/19 13:30:31;;;;;;;;;;;;;;;;;;6301934;28;19916;-80
2024/02/19 13:33:31;;;;;;;;;;;;;;;;;;6333330;28;19908;-81
2024/02/19 13:36:31;;;;;;;;;;;;;;;;;;6306776;28;20359;-80
2024/02/19 13:39:31;;;;;;;;;;;;;;;;;;6319854;28;19912;-80
2024/02/19 13:42:33;;;;;;;;;;;;;;;;;;6324447;28;19911;-80
2024/02/19 13:45:34;;;;;;;;;;;;;;;;;;6321888;28;20006;-80
2024/02/19 13:48:34;;;;;;;;;;;;;;;;;;6316252;28;20246;-80
2024/02/19 13:51:34;;;;;;;;;;;;;;;;;;6298379;28;20258;-80
2024/02/19 13:54:34;;;;;;;;;;;;;;;;;;6304548;28;20607;-80
2024/02/19 13:57:35;;;;;;;;;;;;;;;;;;6313073;28;20424;-80
2024/02/19 14:00:35;;;;;;;;;;;;;;;;;;6326003;28;19904;-80
2024/02/19 14:03:35;;;;;;;;;;;;;;;;;;6311695;28;20395;-82
2024/02/19 14:06:35;;;;;;;;;;;;;;;;;;6316660;28;19919;-79
2024/02/19 14:09:35;;;;;;;;;;;;;;;;;;6312804;28;20399;-80
2024/02/19 14:12:36;;;;;;;;;;;;;;;;;;6330322;28;19915;-80
2024/02/19 14:15:36;;;;;;;;;;;;;;;;;;6323561;28;19912;-80
2024/02/19 14:18:36;;;;;;;;;;;;;;;;;;6325563;28;19958;-80
2024/02/19 14:21:36;;;;;;;;;;;;;;;;;;6306944;28;19999;-78
2024/02/19 14:24:36;;;;;;;;;;;;;;;;;;6300992;28;20011;-79
2024/02/19 14:27:41;;;;;;;;;;;;;;;;;;6300135;28;20050;-79
2024/02/19 14:30:42;;;;;;;;;;;;;;;;;;6303683;28;20011;-79
2024/02/19 14:33:47;;;;;;;;;;;;;;;;;;6306618;28;19912;-78
2024/02/19 14:36:47;;;;;;;;;;;;;;;;;;6326165;28;19930;-78
2024/02/19 14:39:47;;;;;;;;;;;;;;;;;;6325369;28;19908;-79
2024/02/19 14:42:47;;;;;;;;;;;;;;;;;;6305964;28;20246;-78
2024/02/19 14:45:47;;;;;;;;;;;;;;;;;;6311567;28;19934;-79
2024/02/19 14:48:48;;;;;;;;;;;;;;;;;;6324618;28;19908;-79
2024/02/19 14:51:48;;;;;;;;;;;;;;;;;;6316965;28;19999;-78
2024/02/19 14:54:49;;;;;;;;;;;;;;;;;;6317893;28;20002;-79
2024/02/19 14:57:49;;;;;;;;;;;;;;;;;;6323652;28;19908;-78
2024/02/19 15:00:50;;;;;;;;;;;;;;;;;;6305003;28;19919;-78
2024/02/19 15:03:50;;;;;;;;;;;;;;;;;;6308475;28;20379;-77
2024/02/19 15:06:50;;;;;;;;;;;;;;;;;;6314377;28;20372;-76
2024/02/19 15:09:50;;;;;;;;;;;;;;;;;;6300616;28;19908;-76
2024/02/19 15:12:52;;;;;;;;;;;;;;;;;;6301023;28;19923;-77
2024/02/19 15:15:52;;;;;;;;;;;;;;;;;;6298875;28;19912;-77
2024/02/19 15:18:52;;;;;;;;;;;;;;;;;;6307411;28;19904;-77
2024/02/19 15:21:52;;;;;;;;;;;;;;;;;;6322689;28;19904;-77
2024/02/19 15:24:52;;;;;;;;;;;;;;;;;;6324980;28;20394;-77
2024/02/19 15:27:52;;;;;;;;;;;;;;;;;;6323019;28;20335;-77
2024/02/19 15:30:53;;;;;;;;;;;;;;;;;;6311157;28;20022;-77
2024/02/19 15:33:53;;;;;;;;;;;;;;;;;;6323835;28;19962;-77
2024/02/19 15:36:53;;;;;;;;;;;;;;;;;;6306126;28;20402;-77
2024/02/19 15:39:54;;;;;;;;;;;;;;;;;;6324323;28;20395;-77
2024/02/19 15:42:54;;;;;;;;;;;;;;;;;;6323939;28;19908;-77
2024/02/19 15:45:55;;;;;;;;;;;;;;;;;;6323764;28;20360;-76
2024/02/19 15:48:55;;;;;;;;;;;;;;;;;;6323988;28;20318;-76
2024/02/19 15:51:55;;;;;;;;;;;;;;;;;;6314213;28;19904;-77
2024/02/19 15:54:55;;;;;;;;;;;;;;;;;;6311956;28;19908;-76
2024/02/19 15:57:56;;;;;;;;;;;;;;;;;;6320963;28;20025;-77
2024/02/19 16:00:57;;;;;;;;;;;;;;;;;;6321809;28;19911;-77
2024/02/19 16:03:57;;;;;;;;;;;;;;;;;;6323433;28;19905;-76
2024/02/19 16:06:57;;;;;;;;;;;;;;;;;;6323863;28;19912;-76
2024/02/19 16:09:57;;;;;;;;;;;;;;;;;;6323801;28;19957;-77
2024/02/19 16:12:58;;;;;;;;;;;;;;;;;;6325111;28;19920;-77
2024/02/19 16:16:04;;;;;;;;;;;;;;;;;;6303239;28;19907;-77
2024/02/19 16:19:04;;;;;;;;;;;;;;;;;;6323353;28;19919;-77
2024/02/19 16:22:04;;;;;;;;;;;;;;;;;;6323720;28;19966;-77
2024/02/19 16:25:07;;;;;;;;;;;;;;;;;;6316659;28;19965;-78
2024/02/19 16:28:08;;;;;;;;;;;;;;;;;;6315267;28;20347;-78
2024/02/19 16:31:10;;;;;;;;;;;;;;;;;;6317894;28;19908;-78
2024/02/19 16:34:10;;;;;;;;;;;;;;;;;;6311479;28;19908;-78
2024/02/19 16:37:10;;;;;;;;;;;;;;;;;;6317681;28;19908;-78
2024/02/19 16:40:10;;;;;;;;;;;;;;;;;;6305726;28;19958;-82
2024/02/19 16:43:10;;;;;;;;;;;;;;;;;;6320709;28;19960;-82
2024/02/19 16:46:11;;;;;;;;;;;;;;;;;;6312841;28;19923;-80
2024/02/19 16:49:11;;;;;;;;;;;;;;;;;;6311519;28;19919;-81
2024/02/19 16:52:12;;;;;;;;;;;;;;;;;;6307892;28;19909;-81
2024/02/19 16:55:12;;;;;;;;;;;;;;;;;;6306395;28;19908;-80
2024/02/19 16:58:15;;;;;;;;;;;;;;;;;;6315939;28;19951;-81
2024/02/19 17:01:16;;;;;;;;;;;;;;;;;;6309276;28;19904;-80
2024/02/19 17:04:18;;;;;;;;;;;;;;;;;;6312173;28;20254;-80
2024/02/19 17:07:18;;;;;;;;;;;;;;;;;;6309592;28;19912;-81
2024/02/19 17:10:19;;;;;;;;;;;;;;;;;;6323748;28;19919;-81
2024/02/19 17:13:19;;;;;;;;;;;;;;;;;;6316566;28;19927;-81
2024/02/19 17:16:19;;;;;;;;;;;;;;;;;;6316617;28;19916;-81
2024/02/19 17:19:20;;;;;;;;;;;;;;;;;;6303451;28;19904;-85
2024/02/19 17:22:20;;;;;;;;;;;;;;;;;;6298473;28;19911;-86
2024/02/19 17:25:20;;;;;;;;;;;;;;;;;;6309818;28;19915;-86
2024/02/19 17:28:22;;;;;;;;;;;;;;;;;;6319492;28;19915;-86
2024/02/19 17:31:26;;;;;;;;;;;;;;;;;;6309927;28;19998;-86
2024/02/19 17:34:27;;;;;;;;;;;;;;;;;;6316877;28;19908;-86
2024/02/19 17:37:28;;;;;;;;;;;;;;;;;;6324133;28;19935;-86
2024/02/19 17:40:28;;;;;;;;;;;;;;;;;;6323043;28;19959;-86
2024/02/19 17:43:28;;;;;;;;;;;;;;;;;;6321604;28;19972;-85
2024/02/19 17:46:28;;;;;;;;;;;;;;;;;;6326487;28;20362;-86
2024/02/19 17:49:28;;;;;;;;;;;;;;;;;;6309360;28;19948;-85
2024/02/19 17:52:28;;;;;;;;;;;;;;;;;;6314071;28;19916;-78
2024/02/19 17:55:28;;;;;;;;;;;;;;;;;;6324761;28;19908;-77
2024/02/19 17:58:29;;;;;;;;;;;;;;;;;;6311458;28;19920;-79
2024/02/19 18:01:29;;;;;;;;;;;;;;;;;;6325923;28;19904;-76
2024/02/19 18:04:29;;;;;;;;;;;;;;;;;;6300462;28;19912;-76
2024/02/19 18:07:29;;;;;;;;;;;;;;;;;;6315716;28;19908;-83
2024/02/19 18:10:29;;;;;;;;;;;;;;;;;;6316343;28;20365;-82
2024/02/19 18:13:30;;;;;;;;;;;;;;;;;;6330185;28;19916;-85
2024/02/19 18:16:32;;;;;;;;;;;;;;;;;;6323732;28;19908;-84
2024/02/19 18:19:32;;;;;;;;;;;;;;;;;;6300896;28;19908;-85
2024/02/19 18:22:33;;;;;;;;;;;;;;;;;;6318737;28;19919;-84
2024/02/19 18:25:33;;;;;;;;;;;;;;;;;;6318737;28;19912;-83
2024/02/19 18:28:34;;;;;;;;;;;;;;;;;;6317615;28;19922;-82
2024/02/19 18:31:37;;;;;;;;;;;;;;;;;;6311967;28;19995;-84
2024/02/19 18:34:38;;;;;;;;;;;;;;;;;;6315631;28;19916;-84
2024/02/19 18:37:38;;;;;;;;;;;;;;;;;;6324584;28;20013;-84
2024/02/19 18:40:38;;;;;;;;;;;;;;;;;;6304119;28;20313;-84
2024/02/19 18:43:38;;;;;;;;;;;;;;;;;;6317871;28;20055;-85
2024/02/19 18:46:39;;;;;;;;;;;;;;;;;;6319134;28;19920;-84
2024/02/19 18:49:39;;;;;;;;;;;;;;;;;;6312954;28;19913;-84
2024/02/19 18:52:39;;;;;;;;;;;;;;;;;;6305833;28;19911;-84
2024/02/19 18:55:40;;;;;;;;;;;;;;;;;;6322403;28;20565;-84
2024/02/19 18:58:40;;;;;;;;;;;;;;;;;;6323372;28;20327;-84
2024/02/19 19:01:40;;;;;;;;;;;;;;;;;;6312205;28;19951;-79
2024/02/19 19:04:40;;;;;;;;;;;;;;;;;;6314205;28;20010;-78
2024/02/19 19:07:41;;;;;;;;;;;;;;;;;;6308906;28;19912;-78
2024/02/19 19:10:41;;;;;;;;;;;;;;;;;;6318342;28;19911;-78
2024/02/19 19:13:41;;;;;;;;;;;;;;;;;;6317751;28;20403;-79
2024/02/19 19:16:42;;;;;;;;;;;;;;;;;;6318841;28;19965;-79
2024/02/19 19:19:42;;;;;;;;;;;;;;;;;;6315000;28;20457;-79
2024/02/19 19:22:42;;;;;;;;;;;;;;;;;;6304334;28;20391;-79
2024/02/19 19:25:42;;;;;;;;;;;;;;;;;;6303596;28;19912;-79
2024/02/19 19:28:42;;;;;;;;;;;;;;;;;;6312082;28;20315;-79
2024/02/19 19:31:42;;;;;;;;;;;;;;;;;;6302517;28;19916;-79
2024/02/19 19:34:43;;;;;;;;;;;;;;;;;;6295870;28;19919;-79
2024/02/19 19:37:45;;;;;;;;;;;;;;;;;;6306052;28;19961;-79
2024/02/19 19:40:45;;;;;;;;;;;;;;;;;;6297305;28;20273;-78
2024/02/19 19:43:45;;;;;;;;;;;;;;;;;;6307544;28;20014;-78
2024/02/19 19:46:46;;;;;;;;;;;;;;;;;;6341383;27;19913;-78
2024/02/19 19:49:46;;;;;;;;;;;;;;;;;;6319636;28;19923;-78
2024/02/19 19:52:46;;;;;;;;;;;;;;;;;;6307749;28;19911;-78
2024/02/19 19:55:46;;;;;;;;;;;;;;;;;;6296104;28;19908;-78
2024/02/19 19:58:48;;;;;;;;;;;;;;;;;;6295741;28;19908;-78
2024/02/19 20:01:48;;;;;;;;;;;;;;;;;;6294599;28;19946;-78
2024/02/19 20:04:48;;;;;;;;;;;;;;;;;;6314954;28;20002;-78
2024/02/19 20:07:49;;;;;;;;;;;;;;;;;;6326147;28;19915;-78
2024/02/19 20:10:49;;;;;;;;;;;;;;;;;;6299769;28;19970;-78
2024/02/19 20:13:49;;;;;;;;;;;;;;;;;;6333471;28;19927;-79
2024/02/19 20:16:49;;;;;;;;;;;;;;;;;;6328432;28;19930;-78
2024/02/19 20:19:49;;;;;;;;;;;;;;;;;;6309529;28;19957;-80
2024/02/19 20:22:50;;;;;;;;;;;;;;;;;;6307892;28;19965;-78
2024/02/19 20:25:50;;;;;;;;;;;;;;;;;;6295490;28;19916;-79
2024/02/19 20:28:50;;;;;;;;;;;;;;;;;;6306794;28;19923;-80
2024/02/19 20:31:50;;;;;;;;;;;;;;;;;;6306136;28;19908;-79